Time;durP1;ratioP1;P1;durP2;ratioP2;P2;SDS_P1;SDS_P2;PMS_P1;PMS_P2;Temp;Humidity;BMP_temperature;BMP_pressure;BME280_temperature;BME280_humidity;BME280_pressure;Samples;Min_cycle;Max_cycle;Signal;HPM_P1;HPM_P2
2021/12/04 00:00:00;;;;;;;;;;;-1.60;99.90;;;;;;5047644;28;20052;-77
2021/12/04 00:02:26;;;;;;;6.10;1.80;;;-1.50;99.90;;;;;;5046671;28;19917;-77
2021/12/04 00:04:53;;;;;;;6.47;2.65;;;-1.50;99.90;;;;;;5047138;28;20025;-77
2021/12/04 00:07:22;;;;;;;7.82;2.75;;;-1.60;99.90;;;;;;5048358;28;20038;-78
2021/12/04 00:09:50;;;;;;;16.80;5.38;;;-1.70;99.90;;;;;;5046842;28;20063;-77
2021/12/04 00:12:17;;;;;;;9.98;3.83;;;-1.70;99.90;;;;;;5049032;28;20578;-77
2021/12/04 00:14:43;;;;;;;11.95;4.32;;;-1.80;99.90;;;;;;5047276;28;20033;-78
2021/12/04 00:17:09;;;;;;;15.02;5.18;;;-1.90;99.90;;;;;;5047804;28;20036;-77
2021/12/04 00:19:35;;;;;;;;;;;-2.00;99.90;;;;;;5047036;28;20024;-79
2021/12/04 00:22:02;;;;;;;27.13;8.50;;;-2.00;99.90;;;;;;5046990;28;19916;-77
2021/12/04 00:24:28;;;;;;;18.77;7.15;;;-2.10;99.90;;;;;;5047351;28;20025;-77
2021/12/04 00:26:54;;;;;;;;;;;-2.00;99.90;;;;;;5048997;28;20031;-77
2021/12/04 00:29:21;;;;;;;14.77;5.40;;;-2.00;99.90;;;;;;5047772;28;20280;-77
2021/12/04 00:31:53;;;;;;;17.20;6.30;;;-1.90;99.90;;;;;;5047879;28;20497;-78
2021/12/04 00:34:21;;;;;;;14.20;4.97;;;-1.90;99.90;;;;;;5054064;28;20056;-78
2021/12/04 00:50:11;;;;;;;21.75;8.70;;;-2.20;99.90;;;;;;5047293;28;20043;-77
2021/12/04 00:52:37;;;;;;;23.48;10.90;;;-2.20;99.90;;;;;;5047747;28;20444;-77
2021/12/04 00:55:03;;;;;;;;;;;-2.20;99.90;;;;;;5047984;28;20028;-77
2021/12/04 00:57:29;;;;;;;16.83;6.88;;;-2.30;99.90;;;;;;5045585;28;19908;-77
2021/12/04 00:59:54;;;;;;;;;;;-2.40;99.90;;;;;;5046489;28;20059;-79
2021/12/04 01:02:20;;;;;;;14.05;5.00;;;-2.50;99.90;;;;;;5046617;28;20115;-77
2021/12/04 01:04:46;;;;;;;12.27;5.50;;;-2.50;99.90;;;;;;5046008;28;20029;-77
2021/12/04 01:07:12;;;;;;;;;;;-2.70;99.90;;;;;;5047900;28;20037;-78
2021/12/04 01:09:38;;;;;;;12.95;5.95;;;-2.70;99.90;;;;;;5047563;28;19908;-77
2021/12/04 01:12:03;;;;;;;;;;;-2.70;99.90;;;;;;5047832;28;20025;-77
2021/12/04 01:14:31;;;;;;;18.75;7.22;;;-2.80;99.90;;;;;;5047776;28;20254;-77
2021/12/04 01:16:58;;;;;;;16.75;7.45;;;-2.90;99.90;;;;;;5046221;28;20028;-77
2021/12/04 01:19:25;;;;;;;18.05;8.10;;;-2.90;99.90;;;;;;5047384;28;20108;-77
2021/12/04 01:21:52;;;;;;;16.63;5.88;;;-3.00;99.90;;;;;;5048202;28;20028;-77
2021/12/04 01:24:18;;;;;;;12.98;5.22;;;-3.00;99.90;;;;;;5047906;28;20028;-78
2021/12/04 01:26:45;;;;;;;15.23;6.50;;;-2.90;99.90;;;;;;5046214;28;20124;-77
2021/12/04 01:29:10;;;;;;;14.65;6.32;;;-2.90;99.90;;;;;;5046499;28;20059;-77
2021/12/04 01:31:36;;;;;;;;;;;-3.00;99.90;;;;;;5046608;28;20029;-76
2021/12/04 01:34:01;;;;;;;19.00;6.35;;;-2.90;99.90;;;;;;5046846;28;19908;-77
2021/12/04 01:36:29;;;;;;;;;;;-3.00;99.90;;;;;;5048044;28;20025;-77
2021/12/04 01:38:54;;;;;;;15.18;5.90;;;-3.00;99.90;;;;;;5047592;28;19909;-77
2021/12/04 01:41:20;;;;;;;;;;;-3.00;99.90;;;;;;5047257;28;20044;-78
2021/12/04 01:43:46;;;;;;;12.05;5.28;;;-3.00;99.90;;;;;;5049102;28;19917;-77
2021/12/04 01:46:11;;;;;;;;;;;-3.00;99.90;;;;;;5050172;28;20052;-77
2021/12/04 01:48:37;;;;;;;14.75;5.47;;;-3.10;99.90;;;;;;5046447;28;20280;-77
2021/12/04 01:51:03;;;;;;;16.10;5.05;;;-3.10;99.90;;;;;;5047232;28;20394;-77
2021/12/04 01:53:29;;;;;;;15.38;5.90;;;-3.10;99.90;;;;;;5047004;28;20783;-77
2021/12/04 01:55:57;;;;;;;21.77;6.40;;;-3.10;99.90;;;;;;5047943;28;20021;-77
2021/12/04 01:58:24;;;;;;;13.88;6.28;;;-3.10;99.90;;;;;;5046687;28;20506;-77
2021/12/04 02:00:50;;;;;;;16.23;6.47;;;-3.10;99.90;;;;;;5047497;28;20053;-77
2021/12/04 02:03:17;;;;;;;20.63;9.18;;;-3.20;99.90;;;;;;5052773;28;20052;-78
2021/12/04 02:05:43;;;;;;;26.42;10.20;;;-3.20;99.90;;;;;;5050161;28;20021;-77
2021/12/04 02:08:12;;;;;;;25.95;12.48;;;-3.10;99.90;;;;;;5045616;28;20032;-77
2021/12/04 02:10:38;;;;;;;27.45;11.52;;;-3.20;99.90;;;;;;5045701;28;20025;-76
2021/12/04 02:13:04;;;;;;;29.48;13.32;;;-3.20;99.90;;;;;;5045814;28;20448;-77
2021/12/04 02:15:30;;;;;;;42.17;17.30;;;-3.10;99.90;;;;;;5045819;28;20029;-77
2021/12/04 02:17:56;;;;;;;;;;;-3.10;99.90;;;;;;5045155;28;20059;-77
2021/12/04 02:20:25;;;;;;;33.17;12.67;;;-3.20;99.90;;;;;;5045444;28;19948;-78
2021/12/04 02:22:51;;;;;;;27.38;11.10;;;-3.20;99.90;;;;;;5045431;28;20382;-77
2021/12/04 02:25:17;;;;;;;28.77;10.88;;;-3.20;99.90;;;;;;5046449;28;20163;-78
2021/12/04 02:27:45;;;;;;;24.08;10.52;;;-3.30;99.90;;;;;;5046834;28;20449;-77
2021/12/04 02:30:18;;;;;;;19.65;9.88;;;-3.30;99.90;;;;;;5045132;28;20056;-78
2021/12/04 02:32:44;;;;;;;22.52;10.18;;;-3.40;99.90;;;;;;5046788;28;20502;-78
2021/12/04 02:35:11;;;;;;;24.33;8.48;;;-3.40;99.90;;;;;;5045586;28;20032;-76
2021/12/04 02:37:38;;;;;;;18.10;7.43;;;-3.40;99.90;;;;;;5045785;28;20463;-77
2021/12/04 02:40:08;;;;;;;19.63;8.63;;;-3.20;99.90;;;;;;5050985;28;20063;-76
2021/12/04 02:42:34;;;;;;;20.45;8.90;;;-3.10;99.90;;;;;;5050657;28;20528;-77
2021/12/04 02:45:03;;;;;;;17.02;8.85;;;-3.00;99.90;;;;;;5050311;28;20021;-78
2021/12/04 02:47:29;;;;;;;28.17;12.93;;;-3.10;99.90;;;;;;5048575;28;20054;-77
2021/12/04 02:49:56;;;;;;;31.95;14.55;;;-3.10;99.90;;;;;;5049027;28;20383;-77
2021/12/04 02:52:23;;;;;;;35.33;15.75;;;-3.20;99.90;;;;;;5050263;28;20496;-77
2021/12/04 02:54:50;;;;;;;29.63;14.75;;;-3.20;99.90;;;;;;5048603;28;20038;-77
2021/12/04 02:57:18;;;;;;;20.20;8.38;;;-3.30;99.90;;;;;;5050332;28;20075;-77
2021/12/04 02:59:45;;;;;;;17.25;6.10;;;-3.10;99.90;;;;;;5048186;28;20056;-77
2021/12/04 03:02:21;;;;;;;13.18;5.13;;;-2.90;99.90;;;;;;5048401;28;20037;-77
2021/12/04 03:04:50;;;;;;;11.73;4.95;;;-2.80;99.90;;;;;;5048990;28;20486;-77
2021/12/04 03:07:17;;;;;;;15.55;5.95;;;-2.70;99.90;;;;;;5050232;28;20028;-77
2021/12/04 03:09:42;;;;;;;17.88;6.20;;;-2.70;99.90;;;;;;5049114;28;20145;-77
2021/12/04 03:12:09;;;;;;;;;;;-2.80;99.90;;;;;;5050898;28;20108;-77
2021/12/04 03:14:35;;;;;;;16.07;6.93;;;-2.80;99.90;;;;;;5049307;28;19909;-77
2021/12/04 03:17:01;;;;;;;14.60;7.43;;;-2.80;99.90;;;;;;5049066;28;20063;-77
2021/12/04 03:19:27;;;;;;;;;;;-2.80;99.90;;;;;;5049819;28;20064;-77
2021/12/04 03:21:54;;;;;;;15.80;7.60;;;-2.90;99.90;;;;;;5050642;28;19958;-77
2021/12/04 03:24:21;;;;;;;19.13;7.72;;;-3.00;99.90;;;;;;5049099;28;20037;-77
2021/12/04 03:26:49;;;;;;;15.50;6.90;;;-3.00;99.90;;;;;;5050219;28;20116;-77
2021/12/04 03:29:18;;;;;;;18.77;7.63;;;-3.10;99.90;;;;;;5051086;28;20114;-77
2021/12/04 03:42:24;;;;;;;15.85;7.85;;;-3.30;99.90;;;;;;5050334;28;20051;-77
2021/12/04 03:44:50;;;;;;;16.77;7.55;;;-3.30;99.90;;;;;;5048577;28;20033;-77
2021/12/04 03:47:17;;;;;;;21.90;7.50;;;-3.40;99.90;;;;;;5048392;28;20122;-77
2021/12/04 03:49:42;;;;;;;18.20;7.82;;;-3.40;99.90;;;;;;5047246;28;20032;-78
2021/12/04 03:52:09;;;;;;;18.83;7.43;;;-3.30;99.90;;;;;;5050048;28;20032;-77
2021/12/04 03:54:35;;;;;;;14.15;7.25;;;-3.20;99.90;;;;;;5047595;28;20025;-78
2021/12/04 03:57:04;;;;;;;15.20;6.13;;;-3.20;99.90;;;;;;5047853;28;20048;-77
2021/12/04 03:59:35;;;;;;;23.30;9.00;;;-3.20;99.90;;;;;;5047909;28;20041;-78
2021/12/04 04:02:03;;;;;;;28.45;11.90;;;-3.10;99.90;;;;;;5047609;28;20036;-78
2021/12/04 04:04:28;;;;;;;28.10;11.05;;;-3.00;99.90;;;;;;5049180;28;20564;-78
2021/12/04 04:06:54;;;;;;;;;;;-2.90;99.90;;;;;;5047769;28;20116;-78
2021/12/04 04:09:20;;;;;;;34.15;11.25;;;-2.90;99.90;;;;;;5049042;28;20002;-77
2021/12/04 04:11:47;;;;;;;25.23;10.30;;;-2.90;99.90;;;;;;5048979;28;20061;-77
2021/12/04 04:14:13;;;;;;;34.10;11.35;;;-2.90;99.90;;;;;;5047695;28;20585;-77
2021/12/04 04:16:40;;;;;;;25.08;10.23;;;-2.80;99.90;;;;;;5047465;28;20575;-78
2021/12/04 04:19:06;;;;;;;24.92;10.98;;;-2.90;99.90;;;;;;5047799;28;20098;-77
2021/12/04 04:21:39;;;;;;;50.42;24.70;;;-2.90;99.90;;;;;;5047959;28;20029;-78
2021/12/04 04:24:12;;;;;;;54.22;28.35;;;-2.80;99.90;;;;;;5049691;28;20036;-78
2021/12/04 04:26:39;;;;;;;40.67;20.85;;;-2.60;99.90;;;;;;5048273;28;20116;-77
2021/12/04 04:29:06;;;;;;;27.65;15.68;;;-2.50;99.90;;;;;;5049088;28;20065;-78
2021/12/04 04:31:33;;;;;;;33.83;14.75;;;-2.40;99.90;;;;;;5046142;28;20024;-77
2021/12/04 04:34:05;;;;;;;30.05;14.15;;;-2.40;99.90;;;;;;5046743;28;20759;-77
2021/12/04 04:39:34;;;;;;;20.65;7.22;;;-2.20;99.90;;;;;;5048115;28;20070;-76
2021/12/04 05:14:23;;;;;;;13.43;5.57;;;-1.70;99.90;;;;;;5048213;28;20033;-78
2021/12/04 05:16:50;;;;;;;;;;;-1.70;99.90;;;;;;5045845;28;20029;-77
2021/12/04 05:19:38;;;;;;;15.00;7.85;;;-1.70;99.90;;;;;;5045617;28;19995;-77
2021/12/04 05:22:08;;;;;;;22.60;10.10;;;-1.80;99.90;;;;;;5045709;28;20083;-77
2021/12/04 05:24:34;;;;;;;22.23;9.70;;;-1.80;99.90;;;;;;5047157;28;20053;-78
2021/12/04 05:26:59;;;;;;;;;;;-1.90;99.90;;;;;;5046372;28;20471;-78
2021/12/04 05:29:25;;;;;;;24.70;11.27;;;-1.80;99.90;;;;;;5045462;28;20004;-77
2021/12/04 05:31:51;;;;;;;20.85;10.40;;;-2.00;99.90;;;;;;5046591;28;20028;-77
2021/12/04 05:34:17;;;;;;;27.25;11.25;;;-2.00;99.90;;;;;;5047579;28;20044;-77
2021/12/04 05:36:42;;;;;;;;;;;-2.00;99.90;;;;;;5045880;28;20049;-78
2021/12/04 05:39:08;;;;;;;21.38;9.45;;;-2.10;99.90;;;;;;5045539;28;20411;-77
2021/12/04 05:41:34;;;;;;;;;;;-2.10;99.90;;;;;;5046075;28;20045;-77
2021/12/04 05:44:05;;;;;;;17.80;8.93;;;-2.30;99.90;;;;;;5045830;28;19963;-76
2021/12/04 05:46:38;;;;;;;18.65;8.63;;;-2.30;99.90;;;;;;5046669;28;20116;-76
2021/12/04 05:49:09;;;;;;;18.42;9.40;;;-2.20;99.90;;;;;;5046128;28;20040;-78
2021/12/04 05:56:56;;;;;;;32.15;13.20;;;-2.30;99.90;;;;;;5046321;28;20025;-77
2021/12/04 05:59:22;;;;;;;;;;;-2.30;99.90;;;;;;5046987;28;20486;-77
2021/12/04 06:01:48;;;;;;;38.20;16.60;;;-2.40;99.90;;;;;;5045845;28;20962;-78
2021/12/04 06:04:13;;;;;;;;;;;-2.50;99.90;;;;;;5045767;28;20032;-77
2021/12/04 06:06:39;;;;;;;40.20;16.85;;;-2.60;99.90;;;;;;5046918;28;19909;-76
2021/12/04 06:09:05;;;;;;;;;;;-2.70;99.90;;;;;;5046005;28;20052;-77
2021/12/04 06:11:31;;;;;;;47.97;20.58;;;-2.80;99.90;;;;;;5046798;28;19948;-77
2021/12/04 06:13:57;;;;;;;41.90;18.65;;;-2.90;99.90;;;;;;5048546;28;20025;-76
2021/12/04 06:16:22;;;;;;;;;;;-2.90;99.90;;;;;;5050454;28;20032;-76
2021/12/04 06:18:52;;;;;;;28.20;13.13;;;-3.00;99.90;;;;;;5051113;28;20351;-78
2021/12/04 06:24:06;;;;;;;35.40;16.65;;;-3.00;99.90;;;;;;5051330;28;20118;-77
2021/12/04 06:26:36;;;;;;;53.65;26.15;;;-3.00;99.90;;;;;;5050048;28;20062;-77
2021/12/04 06:29:03;;;;;;;41.35;19.63;;;-2.90;99.90;;;;;;5050662;28;20743;-78
2021/12/04 06:31:31;;;;;;;32.42;15.93;;;-2.90;99.90;;;;;;5055844;28;20079;-78
2021/12/04 06:33:57;;;;;;;32.17;15.45;;;-2.90;99.90;;;;;;5050687;28;20473;-78
2021/12/04 06:36:24;;;;;;;33.78;14.98;;;-2.90;99.90;;;;;;5050428;28;20107;-78
2021/12/04 06:38:51;;;;;;;30.58;14.30;;;-2.90;99.90;;;;;;5050266;28;20114;-77
2021/12/04 06:41:16;;;;;;;39.55;17.70;;;-2.80;99.90;;;;;;5048920;28;20043;-78
2021/12/04 06:43:47;;;;;;;;;;;-2.80;99.90;;;;;;5050595;28;20074;-78
2021/12/04 06:46:19;;;;;;;36.53;18.00;;;-2.70;99.90;;;;;;5049331;28;19998;-77
2021/12/04 06:49:08;;;;;;;39.35;18.10;;;-2.70;99.90;;;;;;5050849;28;20036;-78
2021/12/04 06:51:39;;;;;;;45.75;22.45;;;-2.70;99.90;;;;;;5048985;28;20490;-76
2021/12/04 06:54:10;;;;;;;36.05;17.75;;;-2.50;99.90;;;;;;5049448;28;20032;-77
2021/12/04 06:56:43;;;;;;;37.38;18.13;;;-2.40;99.90;;;;;;5047695;28;20029;-77
2021/12/04 06:59:13;;;;;;;26.55;13.70;;;-2.20;99.90;;;;;;5046931;28;20872;-78
2021/12/04 07:01:57;;;;;;;25.10;15.00;;;-2.10;99.90;;;;;;5047573;28;20053;-77
2021/12/04 07:04:34;;;;;;;31.70;15.70;;;-1.60;99.90;;;;;;5047590;28;20045;-76
2021/12/04 07:07:09;;;;;;;38.97;19.60;;;-1.40;99.90;;;;;;5047850;28;20120;-77
2021/12/04 07:09:36;;;;;;;57.58;26.48;;;-1.10;99.90;;;;;;5047433;28;20087;-77
2021/12/04 07:12:04;;;;;;;70.78;34.83;;;-0.90;99.90;;;;;;5047442;28;20028;-76
2021/12/04 07:14:31;;;;;;;90.50;42.92;;;-0.80;99.90;;;;;;5047148;28;20497;-77
2021/12/04 07:17:02;;;;;;;98.15;49.05;;;-0.60;99.90;;;;;;5047671;28;20082;-76
2021/12/04 07:19:29;;;;;;;119.72;57.83;;;-0.40;99.90;;;;;;5048757;28;20099;-77
2021/12/04 07:21:55;;;;;;;120.10;57.95;;;-0.20;99.90;;;;;;5047068;28;20033;-77
2021/12/04 07:24:21;;;;;;;;;;;-0.20;99.90;;;;;;5048893;28;20075;-75
2021/12/04 07:26:47;;;;;;;106.80;51.35;;;0.00;99.90;;;;;;5047420;28;19909;-76
2021/12/04 07:29:12;;;;;;;88.30;38.75;;;0.20;99.90;;;;;;5047663;28;20444;-76
2021/12/04 07:31:38;;;;;;;97.40;42.58;;;0.40;99.90;;;;;;5047513;28;20520;-76
2021/12/04 07:34:05;;;;;;;91.45;41.10;;;0.60;99.90;;;;;;5047587;28;20220;-75
2021/12/04 07:36:31;;;;;;;95.25;39.58;;;0.80;99.90;;;;;;5047872;28;20496;-75
2021/12/04 07:38:59;;;;;;;;;;;1.00;99.90;;;;;;5051056;28;20029;-76
2021/12/04 07:41:24;;;;;;;58.25;24.15;;;1.20;99.90;;;;;;5049006;28;20628;-76
2021/12/04 07:43:50;;;;;;;;;;;1.50;99.90;;;;;;5049426;28;20440;-76
2021/12/04 07:46:16;;;;;;;28.75;14.88;;;1.80;99.90;;;;;;5047972;28;19912;-76
2021/12/04 07:48:42;;;;;;;90.68;40.25;;;2.00;99.90;;;;;;5048797;28;20112;-78
2021/12/04 07:51:08;;;;;;;;;;;2.20;99.90;;;;;;5048410;28;20109;-78
2021/12/04 07:53:33;;;;;;;35.05;15.65;;;2.50;99.90;;;;;;5049174;28;20031;-79
2021/12/04 07:56:00;;;;;;;22.33;12.73;;;2.80;99.90;;;;;;5047800;28;20550;-79
2021/12/04 07:58:26;;;;;;;26.75;12.98;;;3.00;99.90;;;;;;5047846;28;20402;-79
2021/12/04 08:00:52;;;;;;;;;;;3.30;99.90;;;;;;5047782;28;20512;-79
2021/12/04 08:03:18;;;;;;;18.55;9.40;;;3.40;99.90;;;;;;5048079;28;19924;-79
2021/12/04 08:05:44;;;;;;;;;;;3.50;99.90;;;;;;5047866;28;20582;-80
2021/12/04 08:08:10;;;;;;;27.83;15.02;;;3.50;99.90;;;;;;5049116;28;19909;-78
2021/12/04 08:10:36;;;;;;;;;;;3.40;99.90;;;;;;5048389;28;20040;-79
2021/12/04 08:13:03;;;;;;;20.17;12.20;;;3.50;99.90;;;;;;5047180;28;19908;-80
2021/12/04 08:15:33;;;;;;;22.15;10.75;;;3.40;99.90;;;;;;5049124;28;20078;-79
2021/12/04 08:17:58;;;;;;;23.08;11.75;;;3.30;99.90;;;;;;5048753;28;20040;-78
2021/12/04 08:20:25;;;;;;;;;;;3.00;99.90;;;;;;5049035;28;20025;-79
2021/12/04 08:22:51;;;;;;;26.83;12.53;;;2.70;99.90;;;;;;5048847;28;20428;-78
2021/12/04 08:25:18;;;;;;;;;;;2.60;99.90;;;;;;5048398;28;20039;-76
2021/12/04 08:27:45;;;;;;;25.00;12.88;;;2.50;99.90;;;;;;5049280;28;19935;-76
2021/12/04 08:30:14;;;;;;;27.58;14.48;;;2.60;99.90;;;;;;5046580;28;20446;-76
2021/12/04 08:32:40;;;;;;;33.47;17.45;;;2.50;99.90;;;;;;5046946;28;20032;-76
2021/12/04 08:35:07;;;;;;;;;;;2.50;99.90;;;;;;5047580;28;20029;-79
2021/12/04 08:37:32;;;;;;;;;;;2.40;99.90;;;;;;5048533;28;19951;-76
2021/12/04 08:39:58;;;;;;;38.63;17.92;;;2.50;99.90;;;;;;5048528;28;19947;-77
2021/12/04 08:42:24;;;;;;;;;;;2.60;99.90;;;;;;5047983;28;20060;-76
2021/12/04 08:44:52;;;;;;;29.48;13.15;;;2.60;99.90;;;;;;5046861;28;19962;-76
2021/12/04 08:47:18;;;;;;;34.10;14.10;;;2.70;99.90;;;;;;5048256;28;20028;-77
2021/12/04 08:49:43;;;;;;;;;;;2.80;99.90;;;;;;5048185;28;20047;-78
2021/12/04 08:52:10;;;;;;;24.20;13.52;;;2.80;99.90;;;;;;5047575;28;19967;-77
2021/12/04 08:54:37;;;;;;;29.80;12.40;;;2.60;99.90;;;;;;5046955;28;20036;-77
2021/12/04 08:57:03;;;;;;;27.33;13.52;;;2.60;99.90;;;;;;5047964;28;20079;-77
2021/12/04 08:59:29;;;;;;;;;;;2.50;99.90;;;;;;5046173;28;20040;-77
2021/12/04 09:01:55;;;;;;;26.45;11.98;;;2.50;99.90;;;;;;5046243;28;20324;-77
2021/12/04 09:04:28;;;;;;;30.45;16.17;;;2.50;99.90;;;;;;5047771;28;20107;-77
2021/12/04 09:06:55;;;;;;;41.33;20.75;;;2.60;99.90;;;;;;5047868;28;20532;-76
2021/12/04 09:09:23;;;;;;;30.80;17.63;;;2.40;99.90;;;;;;5046426;28;20037;-77
2021/12/04 09:11:53;;;;;;;49.72;17.55;;;2.50;99.90;;;;;;5046394;28;20071;-77
2021/12/04 09:14:22;;;;;;;41.45;18.88;;;2.60;99.90;;;;;;5049000;28;20104;-77
2021/12/04 09:16:51;;;;;;;41.78;23.48;;;2.60;99.90;;;;;;5048506;28;20180;-77
2021/12/04 09:19:18;;;;;;;39.42;18.58;;;2.70;99.90;;;;;;5047764;28;20021;-76
2021/12/04 09:21:45;;;;;;;29.55;15.30;;;2.90;99.90;;;;;;5046759;28;20035;-77
2021/12/04 09:24:15;;;;;;;28.40;13.35;;;2.90;99.90;;;;;;5047235;28;20040;-76
2021/12/04 10:20:58;;;;;;;33.58;16.13;;;3.00;99.90;;;;;;5051261;28;20032;-76
2021/12/04 10:34:28;;;;;;;21.30;10.07;;;2.80;99.90;;;;;;5051070;28;20040;-77
2021/12/04 10:36:54;;;;;;;18.25;8.00;;;2.70;99.90;;;;;;5050364;28;20116;-77
2021/12/04 10:39:20;;;;;;;13.32;7.00;;;2.70;99.90;;;;;;5049654;28;20618;-77
2021/12/04 10:41:46;;;;;;;;;;;2.60;99.90;;;;;;5050821;28;20024;-77
2021/12/04 10:44:27;;;;;;;21.33;11.10;;;2.40;99.90;;;;;;5049623;28;20289;-76
2021/12/04 10:47:10;;;;;;;21.40;10.27;;;2.40;99.90;;;;;;5048005;28;20233;-77
2021/12/04 10:50:06;;;;;;;18.27;11.13;;;2.40;99.90;;;;;;5050103;28;20028;-77
2021/12/04 10:53:01;;;;;;;18.15;10.23;;;2.40;99.90;;;;;;5049844;28;20048;-76
2021/12/04 10:55:54;;;;;;;16.42;8.23;;;2.40;99.90;;;;;;5049017;28;20032;-78
2021/12/04 10:58:51;;;;;;;19.50;10.20;;;2.50;99.90;;;;;;5047022;28;20170;-77
2021/12/04 11:01:31;;;;;;;19.55;9.57;;;2.40;99.90;;;;;;5054668;28;20049;-78
2021/12/04 11:04:08;;;;;;;19.60;10.85;;;2.30;99.90;;;;;;5056933;28;20071;-76
2021/12/04 11:37:09;;;;;;;23.83;10.77;;;2.30;99.90;;;;;;5046384;28;20076;-76
2021/12/04 11:39:58;;;;;;;20.58;11.18;;;2.30;99.90;;;;;;5043736;28;20064;-77
2021/12/04 11:42:34;;;;;;;20.20;8.98;;;2.30;99.90;;;;;;5047282;28;20471;-77
2021/12/04 11:45:13;;;;;;;17.27;9.68;;;2.30;99.90;;;;;;5047477;28;20037;-77
2021/12/04 11:47:42;;;;;;;21.77;9.70;;;2.30;99.90;;;;;;5044459;28;20037;-77
2021/12/04 11:50:28;;;;;;;16.60;10.02;;;2.30;99.90;;;;;;5048025;28;20056;-76
2021/12/04 11:53:00;;;;;;;14.85;8.35;;;2.40;99.90;;;;;;5045550;28;20710;-77
2021/12/04 11:55:28;;;;;;;16.05;8.13;;;2.40;99.90;;;;;;5052011;28;20047;-78
2021/12/04 11:57:55;;;;;;;14.55;8.15;;;2.30;99.90;;;;;;5051960;28;20036;-77
2021/12/04 12:00:35;;;;;;;17.15;8.68;;;2.40;99.90;;;;;;5051382;28;20128;-77
2021/12/04 12:03:20;;;;;;;18.27;9.35;;;2.40;99.90;;;;;;5053407;28;20100;-77
2021/12/04 12:05:56;;;;;;;19.60;11.20;;;2.40;99.90;;;;;;5052170;28;20071;-78
2021/12/04 12:08:21;;;;;;;17.13;9.48;;;2.30;99.90;;;;;;5053833;28;20445;-78
2021/12/04 12:10:50;;;;;;;17.15;8.93;;;2.40;99.90;;;;;;5050413;28;20059;-77
2021/12/04 12:13:44;;;;;;;17.35;8.73;;;2.40;99.90;;;;;;5053718;28;20071;-78
2021/12/04 12:16:23;;;;;;;18.25;9.48;;;2.30;99.90;;;;;;5052165;28;20025;-77
2021/12/04 12:18:54;;;;;;;18.58;8.20;;;2.30;99.90;;;;;;5053531;28;20029;-77
2021/12/04 12:21:27;;;;;;;16.33;8.23;;;2.40;99.90;;;;;;5053883;28;20136;-77
2021/12/04 12:27:10;;;;;;;17.20;9.30;;;2.40;99.90;;;;;;5057898;28;20043;-78
2021/12/04 12:33:10;;;;;;;21.30;8.82;;;2.30;99.90;;;;;;5055100;28;20044;-77
2021/12/04 12:36:05;;;;;;;37.70;20.45;;;2.30;99.90;;;;;;5049641;28;20520;-78
2021/12/04 12:38:40;;;;;;;30.08;16.20;;;2.30;99.90;;;;;;5048065;28;20497;-76
2021/12/04 12:41:10;;;;;;;22.48;10.82;;;2.30;99.90;;;;;;5049059;28;20033;-78
2021/12/04 12:43:46;;;;;;;16.25;8.30;;;2.40;99.90;;;;;;5050902;28;20037;-79
2021/12/04 12:46:12;;;;;;;16.00;9.33;;;2.60;99.90;;;;;;5048936;28;20039;-78
2021/12/04 12:48:52;;;;;;;24.45;12.18;;;2.60;99.90;;;;;;5048163;28;20533;-77
2021/12/04 12:51:31;;;;;;;20.23;10.70;;;2.70;99.90;;;;;;5047946;28;20028;-78
2021/12/04 12:54:00;;;;;;;16.80;8.75;;;2.80;99.90;;;;;;5048002;28;20029;-77
2021/12/04 12:56:30;;;;;;;19.60;11.25;;;2.80;99.90;;;;;;5047706;28;20033;-78
2021/12/04 12:59:02;;;;;;;17.83;9.82;;;2.70;99.90;;;;;;5047717;28;20397;-77
2021/12/04 13:13:43;;;;;;;16.98;8.57;;;2.40;99.90;;;;;;5032861;28;20033;-77
2021/12/04 13:16:22;;;;;;;23.13;8.85;;;2.40;99.90;;;;;;5047982;28;20086;-77
2021/12/04 13:18:56;;;;;;;17.30;9.82;;;2.30;99.90;;;;;;5046087;28;20033;-77
2021/12/04 13:21:24;;;;;;;15.93;9.35;;;2.30;99.90;;;;;;5048696;28;20040;-77
2021/12/04 13:23:52;;;;;;;19.02;11.23;;;2.20;99.90;;;;;;5047196;28;20123;-77
2021/12/04 13:26:24;;;;;;;19.60;10.18;;;2.20;99.90;;;;;;5046921;28;20035;-77
2021/12/04 13:28:51;;;;;;;19.63;9.88;;;2.10;99.90;;;;;;5047694;28;20580;-77
2021/12/04 13:31:18;;;;;;;18.58;10.88;;;2.10;99.90;;;;;;5049492;28;20028;-77
2021/12/04 13:33:46;;;;;;;19.33;10.15;;;2.00;99.90;;;;;;5048119;28;20078;-77
2021/12/04 13:36:18;;;;;;;21.10;10.95;;;1.90;99.90;;;;;;5048758;28;20084;-77
2021/12/04 13:38:44;;;;;;;19.92;11.50;;;1.90;99.90;;;;;;5047137;28;20039;-78
2021/12/04 13:41:11;;;;;;;;;;;1.90;99.90;;;;;;5048292;28;20029;-77
2021/12/04 13:43:36;;;;;;;18.08;11.35;;;1.80;99.90;;;;;;5048043;28;19946;-77
2021/12/04 13:46:03;;;;;;;;;;;1.80;99.90;;;;;;5050000;28;20025;-78
2021/12/04 13:48:32;;;;;;;46.03;22.13;;;1.80;99.90;;;;;;5048049;28;19995;-77
2021/12/04 13:50:59;;;;;;;29.90;16.83;;;1.80;99.90;;;;;;5047714;28;20107;-78
2021/12/04 13:53:30;;;;;;;20.65;10.35;;;1.70;99.90;;;;;;5048334;28;20025;-77
2021/12/04 13:56:05;;;;;;;21.27;12.07;;;1.60;99.90;;;;;;5046626;28;20063;-77
2021/12/04 13:58:31;;;;;;;30.08;14.05;;;1.60;99.90;;;;;;5046963;28;20051;-77
2021/12/04 14:00:58;;;;;;;;;;;1.60;99.90;;;;;;5049307;28;20510;-78
2021/12/04 14:03:26;;;;;;;28.83;14.45;;;1.60;99.90;;;;;;5047725;28;20306;-78
2021/12/04 14:05:53;;;;;;;25.95;14.18;;;1.60;99.90;;;;;;5046852;28;20040;-77
2021/12/04 14:08:20;;;;;;;22.20;13.88;;;1.50;99.90;;;;;;5042333;28;20064;-76
2021/12/04 14:10:47;;;;;;;26.85;14.55;;;1.40;99.90;;;;;;5043253;28;20036;-76
2021/12/04 14:13:17;;;;;;;28.05;14.70;;;1.40;99.90;;;;;;5042705;28;20045;-76
2021/12/04 14:15:47;;;;;;;24.27;13.48;;;1.40;99.90;;;;;;5043492;28;20049;-77
2021/12/04 14:18:22;;;;;;;32.65;16.25;;;1.30;99.90;;;;;;5040114;28;20029;-76
2021/12/04 14:20:55;;;;;;;33.15;17.27;;;1.30;99.90;;;;;;5044462;28;20571;-77
2021/12/04 14:23:25;;;;;;;28.73;15.43;;;1.20;99.90;;;;;;5039770;28;20666;-77
2021/12/04 14:25:54;;;;;;;26.73;13.30;;;1.10;99.90;;;;;;5043737;28;20041;-76
2021/12/04 14:28:24;;;;;;;25.00;13.55;;;1.00;99.90;;;;;;5041099;28;20091;-77
2021/12/04 14:30:51;;;;;;;23.65;13.70;;;1.00;99.90;;;;;;5045506;28;20087;-76
2021/12/04 14:33:23;;;;;;;24.90;14.70;;;0.90;99.90;;;;;;5043694;28;20091;-77
2021/12/04 14:35:51;;;;;;;33.05;17.05;;;0.90;99.90;;;;;;5048695;28;20136;-77
2021/12/04 14:38:26;;;;;;;30.13;14.52;;;0.90;99.90;;;;;;5046200;28;20045;-77
2021/12/04 14:41:00;;;;;;;31.08;15.52;;;0.80;99.90;;;;;;5046158;28;20668;-76
2021/12/04 14:43:29;;;;;;;31.73;17.17;;;0.80;99.90;;;;;;5045623;28;20037;-76
2021/12/04 14:45:57;;;;;;;28.88;15.45;;;0.80;99.90;;;;;;5043505;28;20071;-76
2021/12/04 14:48:27;;;;;;;25.98;14.65;;;0.80;99.90;;;;;;5043843;28;20029;-77
2021/12/04 14:51:04;;;;;;;32.60;14.95;;;0.80;99.90;;;;;;5048848;28;20120;-76
2021/12/04 14:53:38;;;;;;;26.08;15.75;;;0.80;99.90;;;;;;5047263;28;20128;-76
2021/12/04 14:56:06;;;;;;;23.48;12.77;;;0.70;99.90;;;;;;5046176;28;20047;-77
2021/12/04 14:58:32;;;;;;;27.90;15.55;;;0.60;99.90;;;;;;5047750;28;20143;-78
2021/12/04 15:01:00;;;;;;;;;;;0.60;99.90;;;;;;5053729;28;20137;-78
2021/12/04 15:03:37;;;;;;;33.85;18.13;;;0.70;99.90;;;;;;5053751;28;19917;-77
2021/12/04 15:06:06;;;;;;;57.75;30.33;;;0.60;99.90;;;;;;5055235;28;20559;-77
2021/12/04 15:08:41;;;;;;;49.33;26.50;;;0.60;99.90;;;;;;5049596;28;20037;-78
2021/12/04 15:11:10;;;;;;;43.00;22.90;;;0.60;99.90;;;;;;5048655;28;20412;-76
2021/12/04 15:13:46;;;;;;;39.97;20.38;;;0.60;99.90;;;;;;5047401;28;20461;-77
2021/12/04 15:16:16;;;;;;;31.40;17.73;;;0.60;99.90;;;;;;5048466;28;20096;-77
2021/12/04 15:18:42;;;;;;;42.88;19.42;;;0.60;99.90;;;;;;5046944;28;20037;-75
2021/12/04 15:21:13;;;;;;;;;;;0.50;99.90;;;;;;5048037;28;20032;-77
2021/12/04 15:23:39;;;;;;;32.47;15.85;;;0.50;99.90;;;;;;5049421;28;19956;-77
2021/12/04 15:26:12;;;;;;;;;;;0.50;99.90;;;;;;5050794;28;20061;-77
2021/12/04 15:28:52;;;;;;;32.05;14.90;;;0.40;99.90;;;;;;5050034;28;19909;-77
2021/12/04 15:31:20;;;;;;;34.05;17.95;;;0.40;99.90;;;;;;5048690;28;20028;-79
2021/12/04 15:33:49;;;;;;;55.30;27.92;;;0.30;99.90;;;;;;5047600;28;20028;-78
2021/12/04 15:36:38;;;;;;;33.10;18.13;;;0.20;99.90;;;;;;5048469;28;20025;-78
2021/12/04 15:39:11;;;;;;;33.55;16.30;;;0.20;99.90;;;;;;5049421;28;20028;-78
2021/12/04 15:46:42;;;;;;;;;;;0.10;99.90;;;;;;5051027;28;20025;-76
2021/12/04 15:54:33;;;;;;;44.00;24.92;;;-0.10;99.90;;;;;;5048569;28;20059;-76
2021/12/04 15:56:59;;;;;;;46.72;22.08;;;-0.20;99.90;;;;;;5048870;28;20504;-76
2021/12/04 15:59:26;;;;;;;;;;;-0.20;99.90;;;;;;5053369;28;20099;-77
2021/12/04 16:01:55;;;;;;;30.23;18.20;;;-0.20;99.90;;;;;;5049830;28;20397;-77
2021/12/04 16:04:27;;;;;;;35.30;17.67;;;-0.20;99.90;;;;;;5048987;28;20052;-78
2021/12/04 16:06:54;;;;;;;31.95;18.55;;;-0.20;99.90;;;;;;5049573;28;20050;-77
2021/12/04 16:09:28;;;;;;;36.63;19.40;;;-0.20;99.90;;;;;;5049546;28;20025;-78
2021/12/04 16:12:08;;;;;;;36.47;19.02;;;-0.10;99.90;;;;;;5048764;28;20166;-78